Kezdőlap
METAR-TAF:

METAR-TAF

Repülőterek :

New York, New York, Amerikai Egyesült Államok

földrajzi szélesség: 40-42-04N, földrajzi hosszúság: 074-00-32W, magasság: 2 m

Jelenlegi meteorológiai megfigyelések

A jelentés 22 perccel ezelõtt készült, 16:56 UTC
Délnyugati szél 5 kt
Hőmérséklet 11°C
Páratartalom 30%
Légköri nyomás 1023 hPa
Látótávolság: 16.1 km
Derült ég

METAR: KJRB 231656Z AUTO 23005KT 10SM CLR 11/M06 A3020 RMK AO2 PK WND 27034/1644 SLP227 P0001 T01061056

Idő: 12:18 (17:18 UTC)


TAF: hiányzik

Meteorológiai megfigyelések és előrejelzések több, mint 4000 repülőtéren (METAR és TAF jelentéseket).

A térképen piros és sárga pontok jelzik az elérhető meteorológiai állomásokat.

Mozgassa az egeret a pont fölött, hogy megjelenjen az állomás neve.

Azután kattintson az időjárási megfigyelések és előrejelzések megtekintéséhez.

A térkép megváltoztatása: kattintson a fekete keresztel jelölt zöld gombra ráközelítéshez, a vonallal jelölt zöld gombra távolításhoz, vagy a zöld nyilakra a szomszédos térképek eléréséhez.


METAR-TAF: